sensor_id;sensor_type;location;lat;lon;timestamp;temperature;humidity
40828;DHT22;26549;50.918;5.338;2024-03-08T00:00:16;7.10;99.90
40828;DHT22;26549;50.918;5.338;2024-03-08T00:02:45;7.20;99.90
40828;DHT22;26549;50.918;5.338;2024-03-08T00:05:14;7.20;99.90
40828;DHT22;26549;50.918;5.338;2024-03-08T00:07:41;7.10;99.90
40828;DHT22;26549;50.918;5.338;2024-03-08T00:10:09;7.20;99.90
40828;DHT22;26549;50.918;5.338;2024-03-08T00:12:39;7.20;99.90
40828;DHT22;26549;50.918;5.338;2024-03-08T00:15:11;7.10;99.90
40828;DHT22;26549;50.918;5.338;2024-03-08T00:17:40;7.20;99.90
40828;DHT22;26549;50.918;5.338;2024-03-08T00:20:06;7.00;99.90
40828;DHT22;26549;50.918;5.338;2024-03-08T00:22:37;7.00;99.90
40828;DHT22;26549;50.918;5.338;2024-03-08T00:25:05;6.90;99.90
40828;DHT22;26549;50.918;5.338;2024-03-08T00:27:31;7.00;99.90
40828;DHT22;26549;50.918;5.338;2024-03-08T00:30:00;6.90;99.90
40828;DHT22;26549;50.918;5.338;2024-03-08T00:32:26;6.90;99.90
40828;DHT22;26549;50.918;5.338;2024-03-08T00:34:57;7.00;99.90
40828;DHT22;26549;50.918;5.338;2024-03-08T00:37:23;7.00;99.90
40828;DHT22;26549;50.918;5.338;2024-03-08T00:39:52;6.90;99.90
40828;DHT22;26549;50.918;5.338;2024-03-08T00:42:19;7.00;99.90
40828;DHT22;26549;50.918;5.338;2024-03-08T00:44:45;6.80;99.90
40828;DHT22;26549;50.918;5.338;2024-03-08T00:47:11;6.70;99.90
40828;DHT22;26549;50.918;5.338;2024-03-08T00:49:37;6.70;99.90
40828;DHT22;26549;50.918;5.338;2024-03-08T00:52:06;6.60;99.90
40828;DHT22;26549;50.918;5.338;2024-03-08T00:54:35;6.70;99.90
40828;DHT22;26549;50.918;5.338;2024-03-08T00:57:04;6.60;99.90
40828;DHT22;26549;50.918;5.338;2024-03-08T00:59:30;6.70;99.90
40828;DHT22;26549;50.918;5.338;2024-03-08T01:01:58;6.60;99.90
40828;DHT22;26549;50.918;5.338;2024-03-08T01:04:26;6.50;99.90
40828;DHT22;26549;50.918;5.338;2024-03-08T01:06:56;6.50;99.90
40828;DHT22;26549;50.918;5.338;2024-03-08T01:09:23;6.50;99.90
40828;DHT22;26549;50.918;5.338;2024-03-08T01:11:49;6.50;99.90
40828;DHT22;26549;50.918;5.338;2024-03-08T01:14:16;6.50;99.90
40828;DHT22;26549;50.918;5.338;2024-03-08T01:16:41;6.40;99.90
40828;DHT22;26549;50.918;5.338;2024-03-08T01:19:07;6.40;99.90
40828;DHT22;26549;50.918;5.338;2024-03-08T01:21:34;6.40;99.90
40828;DHT22;26549;50.918;5.338;2024-03-08T01:24:00;6.40;99.90
40828;DHT22;26549;50.918;5.338;2024-03-08T01:26:27;6.30;99.90
40828;DHT22;26549;50.918;5.338;2024-03-08T01:28:52;6.40;99.90
40828;DHT22;26549;50.918;5.338;2024-03-08T01:31:18;6.40;99.90
40828;DHT22;26549;50.918;5.338;2024-03-08T01:33:44;6.30;99.90
40828;DHT22;26549;50.918;5.338;2024-03-08T01:36:09;6.40;99.90
40828;DHT22;26549;50.918;5.338;2024-03-08T01:38:36;6.30;99.90
40828;DHT22;26549;50.918;5.338;2024-03-08T01:41:03;6.30;99.90
40828;DHT22;26549;50.918;5.338;2024-03-08T01:43:29;6.30;99.90
40828;DHT22;26549;50.918;5.338;2024-03-08T01:45:58;6.40;99.90
40828;DHT22;26549;50.918;5.338;2024-03-08T01:48:28;6.20;99.90
40828;DHT22;26549;50.918;5.338;2024-03-08T01:50:55;6.10;99.90
40828;DHT22;26549;50.918;5.338;2024-03-08T01:53:22;6.10;99.90
40828;DHT22;26549;50.918;5.338;2024-03-08T01:55:50;6.00;99.90
40828;DHT22;26549;50.918;5.338;2024-03-08T01:58:17;6.10;99.90
40828;DHT22;26549;50.918;5.338;2024-03-08T02:00:48;6.00;99.90
40828;DHT22;26549;50.918;5.338;2024-03-08T02:03:16;6.00;99.90
40828;DHT22;26549;50.918;5.338;2024-03-08T02:05:45;6.00;99.90
40828;DHT22;26549;50.918;5.338;2024-03-08T02:08:11;6.10;99.90
40828;DHT22;26549;50.918;5.338;2024-03-08T02:10:41;6.20;99.90
40828;DHT22;26549;50.918;5.338;2024-03-08T02:13:08;6.00;99.90
40828;DHT22;26549;50.918;5.338;2024-03-08T02:15:54;6.10;99.90
40828;DHT22;26549;50.918;5.338;2024-03-08T02:18:20;6.10;99.90
40828;DHT22;26549;50.918;5.338;2024-03-08T02:20:50;6.20;99.90
40828;DHT22;26549;50.918;5.338;2024-03-08T02:23:18;5.90;99.90
40828;DHT22;26549;50.918;5.338;2024-03-08T02:25:47;6.00;99.90
40828;DHT22;26549;50.918;5.338;2024-03-08T02:28:14;5.80;99.90
40828;DHT22;26549;50.918;5.338;2024-03-08T02:30:40;5.90;99.90
40828;DHT22;26549;50.918;5.338;2024-03-08T02:33:06;5.70;99.90
40828;DHT22;26549;50.918;5.338;2024-03-08T02:35:33;5.80;99.90
40828;DHT22;26549;50.918;5.338;2024-03-08T02:37:59;5.90;99.90
40828;DHT22;26549;50.918;5.338;2024-03-08T02:40:29;5.90;99.90
40828;DHT22;26549;50.918;5.338;2024-03-08T02:42:55;5.70;99.90
40828;DHT22;26549;50.918;5.338;2024-03-08T02:45:21;5.80;99.90
40828;DHT22;26549;50.918;5.338;2024-03-08T02:47:47;5.70;99.90
40828;DHT22;26549;50.918;5.338;2024-03-08T02:50:15;5.90;99.90
40828;DHT22;26549;50.918;5.338;2024-03-08T02:52:42;5.80;99.90
40828;DHT22;26549;50.918;5.338;2024-03-08T02:55:09;5.60;99.90
40828;DHT22;26549;50.918;5.338;2024-03-08T02:57:36;5.60;99.90
40828;DHT22;26549;50.918;5.338;2024-03-08T03:00:02;5.70;99.90
40828;DHT22;26549;50.918;5.338;2024-03-08T03:02:30;5.70;99.90
40828;DHT22;26549;50.918;5.338;2024-03-08T03:04:56;5.70;99.90
40828;DHT22;26549;50.918;5.338;2024-03-08T03:07:23;5.50;99.90
40828;DHT22;26549;50.918;5.338;2024-03-08T03:09:48;5.50;99.90
40828;DHT22;26549;50.918;5.338;2024-03-08T03:12:14;5.70;99.90
40828;DHT22;26549;50.918;5.338;2024-03-08T03:14:40;5.60;99.90
40828;DHT22;26549;50.918;5.338;2024-03-08T03:17:06;5.50;99.90
40828;DHT22;26549;50.918;5.338;2024-03-08T03:19:32;5.70;99.90
40828;DHT22;26549;50.918;5.338;2024-03-08T03:21:59;5.50;99.90
40828;DHT22;26549;50.918;5.338;2024-03-08T03:24:24;5.60;99.90
40828;DHT22;26549;50.918;5.338;2024-03-08T03:26:50;5.60;99.90
40828;DHT22;26549;50.918;5.338;2024-03-08T03:29:17;5.60;99.90
40828;DHT22;26549;50.918;5.338;2024-03-08T03:31:44;5.60;99.90
40828;DHT22;26549;50.918;5.338;2024-03-08T03:34:12;5.50;99.90
40828;DHT22;26549;50.918;5.338;2024-03-08T03:36:38;5.50;99.90
40828;DHT22;26549;50.918;5.338;2024-03-08T03:39:10;5.40;99.90
40828;DHT22;26549;50.918;5.338;2024-03-08T03:41:38;5.30;99.90
40828;DHT22;26549;50.918;5.338;2024-03-08T03:44:05;5.40;99.90
40828;DHT22;26549;50.918;5.338;2024-03-08T03:46:34;5.40;99.90
40828;DHT22;26549;50.918;5.338;2024-03-08T03:49:01;5.30;99.90
40828;DHT22;26549;50.918;5.338;2024-03-08T03:51:27;5.40;99.90
40828;DHT22;26549;50.918;5.338;2024-03-08T03:53:52;5.30;99.90
40828;DHT22;26549;50.918;5.338;2024-03-08T03:56:19;5.20;99.90
40828;DHT22;26549;50.918;5.338;2024-03-08T03:58:50;5.30;99.90
40828;DHT22;26549;50.918;5.338;2024-03-08T04:01:16;5.30;99.90
40828;DHT22;26549;50.918;5.338;2024-03-08T04:03:42;5.20;99.90
40828;DHT22;26549;50.918;5.338;2024-03-08T04:06:11;5.10;99.90
40828;DHT22;26549;50.918;5.338;2024-03-08T04:08:38;5.20;99.90
40828;DHT22;26549;50.918;5.338;2024-03-08T04:11:03;5.20;99.90
40828;DHT22;26549;50.918;5.338;2024-03-08T04:13:29;5.10;99.90
40828;DHT22;26549;50.918;5.338;2024-03-08T04:15:55;5.00;99.90
40828;DHT22;26549;50.918;5.338;2024-03-08T04:18:21;5.10;99.90
40828;DHT22;26549;50.918;5.338;2024-03-08T04:20:46;5.10;99.90
40828;DHT22;26549;50.918;5.338;2024-03-08T04:23:15;5.00;99.90
40828;DHT22;26549;50.918;5.338;2024-03-08T04:25:41;5.20;99.90
40828;DHT22;26549;50.918;5.338;2024-03-08T04:28:08;5.10;99.90
40828;DHT22;26549;50.918;5.338;2024-03-08T04:30:38;5.10;99.90
40828;DHT22;26549;50.918;5.338;2024-03-08T04:33:05;5.10;99.90
40828;DHT22;26549;50.918;5.338;2024-03-08T04:35:31;5.00;99.90
40828;DHT22;26549;50.918;5.338;2024-03-08T04:37:57;5.10;99.90
40828;DHT22;26549;50.918;5.338;2024-03-08T04:40:23;5.10;99.90
40828;DHT22;26549;50.918;5.338;2024-03-08T04:42:50;5.00;99.90
40828;DHT22;26549;50.918;5.338;2024-03-08T04:45:19;5.00;99.90
40828;DHT22;26549;50.918;5.338;2024-03-08T04:47:45;5.00;99.90
40828;DHT22;26549;50.918;5.338;2024-03-08T04:50:11;5.00;99.90
40828;DHT22;26549;50.918;5.338;2024-03-08T04:52:37;5.00;99.90
40828;DHT22;26549;50.918;5.338;2024-03-08T04:55:03;4.90;99.90
40828;DHT22;26549;50.918;5.338;2024-03-08T04:57:31;4.90;99.90
40828;DHT22;26549;50.918;5.338;2024-03-08T04:59:57;4.90;99.90
40828;DHT22;26549;50.918;5.338;2024-03-08T05:02:24;4.80;99.90
40828;DHT22;26549;50.918;5.338;2024-03-08T05:04:50;4.90;99.90
40828;DHT22;26549;50.918;5.338;2024-03-08T05:07:16;4.90;99.90
40828;DHT22;26549;50.918;5.338;2024-03-08T05:09:42;5.00;99.90
40828;DHT22;26549;50.918;5.338;2024-03-08T05:12:08;5.00;99.90
40828;DHT22;26549;50.918;5.338;2024-03-08T05:14:34;5.00;99.90
40828;DHT22;26549;50.918;5.338;2024-03-08T05:17:02;5.10;99.90
40828;DHT22;26549;50.918;5.338;2024-03-08T05:19:28;5.00;99.90
40828;DHT22;26549;50.918;5.338;2024-03-08T05:21:56;4.90;99.90
40828;DHT22;26549;50.918;5.338;2024-03-08T05:24:22;4.90;99.90
40828;DHT22;26549;50.918;5.338;2024-03-08T05:26:48;4.80;99.90
40828;DHT22;26549;50.918;5.338;2024-03-08T05:29:14;4.80;99.90
40828;DHT22;26549;50.918;5.338;2024-03-08T05:31:49;4.70;99.90
40828;DHT22;26549;50.918;5.338;2024-03-08T05:34:16;4.70;99.90
40828;DHT22;26549;50.918;5.338;2024-03-08T05:36:43;4.80;99.90
40828;DHT22;26549;50.918;5.338;2024-03-08T05:39:11;4.80;99.90
40828;DHT22;26549;50.918;5.338;2024-03-08T05:41:38;4.90;99.90
40828;DHT22;26549;50.918;5.338;2024-03-08T05:44:04;4.80;99.90
40828;DHT22;26549;50.918;5.338;2024-03-08T05:46:30;4.90;99.90
40828;DHT22;26549;50.918;5.338;2024-03-08T05:48:56;4.80;99.90
40828;DHT22;26549;50.918;5.338;2024-03-08T05:51:25;4.90;99.90
40828;DHT22;26549;50.918;5.338;2024-03-08T05:53:54;4.90;99.90
40828;DHT22;26549;50.918;5.338;2024-03-08T05:56:22;4.80;99.90
40828;DHT22;26549;50.918;5.338;2024-03-08T05:58:52;4.70;99.90
40828;DHT22;26549;50.918;5.338;2024-03-08T06:01:17;4.70;99.90
40828;DHT22;26549;50.918;5.338;2024-03-08T06:03:45;4.60;99.90
40828;DHT22;26549;50.918;5.338;2024-03-08T06:06:13;4.60;99.90
40828;DHT22;26549;50.918;5.338;2024-03-08T06:08:39;4.70;99.90
40828;DHT22;26549;50.918;5.338;2024-03-08T06:11:06;4.60;99.90
40828;DHT22;26549;50.918;5.338;2024-03-08T06:13:33;4.60;99.90
40828;DHT22;26549;50.918;5.338;2024-03-08T06:16:03;4.70;99.90
40828;DHT22;26549;50.918;5.338;2024-03-08T06:18:30;4.70;99.90
40828;DHT22;26549;50.918;5.338;2024-03-08T06:20:57;4.70;99.90
40828;DHT22;26549;50.918;5.338;2024-03-08T06:23:23;4.70;99.90
40828;DHT22;26549;50.918;5.338;2024-03-08T06:25:49;4.70;99.90
40828;DHT22;26549;50.918;5.338;2024-03-08T06:28:15;4.70;99.90
40828;DHT22;26549;50.918;5.338;2024-03-08T06:30:42;4.70;99.90
40828;DHT22;26549;50.918;5.338;2024-03-08T06:33:08;4.70;99.90
40828;DHT22;26549;50.918;5.338;2024-03-08T06:35:34;4.80;99.90
40828;DHT22;26549;50.918;5.338;2024-03-08T06:38:04;4.80;99.90
40828;DHT22;26549;50.918;5.338;2024-03-08T06:40:30;4.90;99.90
40828;DHT22;26549;50.918;5.338;2024-03-08T06:42:56;4.80;99.90
40828;DHT22;26549;50.918;5.338;2024-03-08T06:45:25;4.80;99.90
40828;DHT22;26549;50.918;5.338;2024-03-08T06:47:52;4.80;99.90
40828;DHT22;26549;50.918;5.338;2024-03-08T06:50:20;4.80;99.90
40828;DHT22;26549;50.918;5.338;2024-03-08T06:52:47;4.90;99.90
40828;DHT22;26549;50.918;5.338;2024-03-08T06:55:18;5.00;99.90
40828;DHT22;26549;50.918;5.338;2024-03-08T06:57:44;5.10;99.90
40828;DHT22;26549;50.918;5.338;2024-03-08T07:00:10;5.00;99.90
40828;DHT22;26549;50.918;5.338;2024-03-08T07:02:42;5.00;99.90
40828;DHT22;26549;50.918;5.338;2024-03-08T07:05:11;5.10;99.90
40828;DHT22;26549;50.918;5.338;2024-03-08T07:07:37;5.20;99.90
40828;DHT22;26549;50.918;5.338;2024-03-08T07:10:05;5.30;99.90
40828;DHT22;26549;50.918;5.338;2024-03-08T07:12:32;5.30;99.90
40828;DHT22;26549;50.918;5.338;2024-03-08T07:14:58;5.30;99.90
40828;DHT22;26549;50.918;5.338;2024-03-08T07:17:26;5.20;99.90
40828;DHT22;26549;50.918;5.338;2024-03-08T07:19:52;5.20;99.90
40828;DHT22;26549;50.918;5.338;2024-03-08T07:22:19;5.30;99.90
40828;DHT22;26549;50.918;5.338;2024-03-08T07:24:45;5.40;99.90
40828;DHT22;26549;50.918;5.338;2024-03-08T07:27:29;5.40;99.90
40828;DHT22;26549;50.918;5.338;2024-03-08T07:29:55;5.50;99.90
40828;DHT22;26549;50.918;5.338;2024-03-08T07:32:23;5.60;99.90
40828;DHT22;26549;50.918;5.338;2024-03-08T07:34:51;5.60;99.90
40828;DHT22;26549;50.918;5.338;2024-03-08T07:37:21;5.60;99.90
40828;DHT22;26549;50.918;5.338;2024-03-08T07:39:48;5.60;99.90
40828;DHT22;26549;50.918;5.338;2024-03-08T07:42:16;5.60;99.90
40828;DHT22;26549;50.918;5.338;2024-03-08T07:44:42;5.60;99.90
40828;DHT22;26549;50.918;5.338;2024-03-08T07:47:11;5.70;99.90
40828;DHT22;26549;50.918;5.338;2024-03-08T07:49:39;5.80;99.90
40828;DHT22;26549;50.918;5.338;2024-03-08T07:52:05;5.90;99.90
40828;DHT22;26549;50.918;5.338;2024-03-08T07:54:35;5.90;99.90
40828;DHT22;26549;50.918;5.338;2024-03-08T07:57:11;5.90;99.90
40828;DHT22;26549;50.918;5.338;2024-03-08T07:59:36;6.10;99.90
40828;DHT22;26549;50.918;5.338;2024-03-08T08:02:02;6.10;99.90
40828;DHT22;26549;50.918;5.338;2024-03-08T08:04:31;6.20;99.90
40828;DHT22;26549;50.918;5.338;2024-03-08T08:06:59;6.30;99.90
40828;DHT22;26549;50.918;5.338;2024-03-08T08:09:27;6.30;99.90
40828;DHT22;26549;50.918;5.338;2024-03-08T08:12:03;6.30;99.90
40828;DHT22;26549;50.918;5.338;2024-03-08T08:14:31;6.30;99.90
40828;DHT22;26549;50.918;5.338;2024-03-08T08:16:57;6.30;99.90
40828;DHT22;26549;50.918;5.338;2024-03-08T08:19:25;6.30;99.90
40828;DHT22;26549;50.918;5.338;2024-03-08T08:22:04;6.30;99.90
40828;DHT22;26549;50.918;5.338;2024-03-08T08:24:30;6.40;99.90
40828;DHT22;26549;50.918;5.338;2024-03-08T08:26:56;6.50;99.90
40828;DHT22;26549;50.918;5.338;2024-03-08T08:29:21;6.50;99.90
40828;DHT22;26549;50.918;5.338;2024-03-08T08:31:48;6.70;99.90
40828;DHT22;26549;50.918;5.338;2024-03-08T08:34:19;6.80;99.90
40828;DHT22;26549;50.918;5.338;2024-03-08T08:36:45;6.90;99.90
40828;DHT22;26549;50.918;5.338;2024-03-08T08:39:13;6.90;99.90
40828;DHT22;26549;50.918;5.338;2024-03-08T08:41:39;6.90;99.90
40828;DHT22;26549;50.918;5.338;2024-03-08T08:44:07;6.90;99.90
40828;DHT22;26549;50.918;5.338;2024-03-08T08:46:38;7.00;99.90
40828;DHT22;26549;50.918;5.338;2024-03-08T08:49:05;7.10;99.90
40828;DHT22;26549;50.918;5.338;2024-03-08T08:51:33;7.30;99.90
40828;DHT22;26549;50.918;5.338;2024-03-08T08:54:02;7.40;99.90
40828;DHT22;26549;50.918;5.338;2024-03-08T08:56:29;7.50;99.90
40828;DHT22;26549;50.918;5.338;2024-03-08T08:58:55;7.50;99.90
40828;DHT22;26549;50.918;5.338;2024-03-08T09:01:22;7.60;99.90
40828;DHT22;26549;50.918;5.338;2024-03-08T09:03:48;7.40;99.90
40828;DHT22;26549;50.918;5.338;2024-03-08T09:06:16;7.50;99.90
40828;DHT22;26549;50.918;5.338;2024-03-08T09:08:42;7.60;99.90
40828;DHT22;26549;50.918;5.338;2024-03-08T09:11:09;7.70;99.90
40828;DHT22;26549;50.918;5.338;2024-03-08T09:13:36;7.90;99.90
40828;DHT22;26549;50.918;5.338;2024-03-08T09:16:04;7.90;99.90
40828;DHT22;26549;50.918;5.338;2024-03-08T09:18:35;8.00;99.90
40828;DHT22;26549;50.918;5.338;2024-03-08T09:21:02;7.90;99.90
40828;DHT22;26549;50.918;5.338;2024-03-08T09:23:28;7.90;99.90
40828;DHT22;26549;50.918;5.338;2024-03-08T09:25:57;8.10;99.90
40828;DHT22;26549;50.918;5.338;2024-03-08T09:28:25;8.20;99.90
40828;DHT22;26549;50.918;5.338;2024-03-08T09:30:52;8.20;99.90
40828;DHT22;26549;50.918;5.338;2024-03-08T09:33:19;8.20;99.90
40828;DHT22;26549;50.918;5.338;2024-03-08T09:35:46;8.20;99.90
40828;DHT22;26549;50.918;5.338;2024-03-08T09:38:14;8.20;99.90
40828;DHT22;26549;50.918;5.338;2024-03-08T09:40:44;8.30;99.90
40828;DHT22;26549;50.918;5.338;2024-03-08T09:43:10;8.30;99.90
40828;DHT22;26549;50.918;5.338;2024-03-08T09:45:40;8.30;99.90
40828;DHT22;26549;50.918;5.338;2024-03-08T09:48:14;8.40;99.90
40828;DHT22;26549;50.918;5.338;2024-03-08T09:50:41;8.50;99.90
40828;DHT22;26549;50.918;5.338;2024-03-08T09:53:07;8.60;99.90
40828;DHT22;26549;50.918;5.338;2024-03-08T09:55:37;8.60;99.90
40828;DHT22;26549;50.918;5.338;2024-03-08T09:58:06;8.60;99.90
40828;DHT22;26549;50.918;5.338;2024-03-08T10:00:56;8.60;99.90
40828;DHT22;26549;50.918;5.338;2024-03-08T10:03:24;8.70;99.90
40828;DHT22;26549;50.918;5.338;2024-03-08T10:05:53;8.70;99.90
40828;DHT22;26549;50.918;5.338;2024-03-08T10:08:27;8.80;99.90
40828;DHT22;26549;50.918;5.338;2024-03-08T10:10:57;8.80;99.90
40828;DHT22;26549;50.918;5.338;2024-03-08T10:13:26;8.90;99.90
40828;DHT22;26549;50.918;5.338;2024-03-08T10:15:55;9.00;99.90
40828;DHT22;26549;50.918;5.338;2024-03-08T10:18:21;9.20;99.90
40828;DHT22;26549;50.918;5.338;2024-03-08T10:21:05;9.10;99.90
40828;DHT22;26549;50.918;5.338;2024-03-08T10:23:33;9.20;99.90
40828;DHT22;26549;50.918;5.338;2024-03-08T10:26:12;9.30;99.90
40828;DHT22;26549;50.918;5.338;2024-03-08T10:28:41;9.40;99.90
40828;DHT22;26549;50.918;5.338;2024-03-08T10:31:08;9.40;99.90
40828;DHT22;26549;50.918;5.338;2024-03-08T10:33:36;9.20;99.90
40828;DHT22;26549;50.918;5.338;2024-03-08T10:36:06;9.30;99.90
40828;DHT22;26549;50.918;5.338;2024-03-08T10:38:37;9.30;99.90
40828;DHT22;26549;50.918;5.338;2024-03-08T10:41:07;9.30;99.90
40828;DHT22;26549;50.918;5.338;2024-03-08T10:47:01;9.60;99.90
40828;DHT22;26549;50.918;5.338;2024-03-08T10:49:36;9.70;99.90
40828;DHT22;26549;50.918;5.338;2024-03-08T10:52:05;9.70;99.90
40828;DHT22;26549;50.918;5.338;2024-03-08T10:54:39;9.90;99.90
40828;DHT22;26549;50.918;5.338;2024-03-08T10:57:06;9.80;99.90
40828;DHT22;26549;50.918;5.338;2024-03-08T10:59:35;9.90;99.90
40828;DHT22;26549;50.918;5.338;2024-03-08T11:02:02;9.90;99.90
40828;DHT22;26549;50.918;5.338;2024-03-08T11:04:27;10.00;99.90
40828;DHT22;26549;50.918;5.338;2024-03-08T11:07:01;10.10;99.90
40828;DHT22;26549;50.918;5.338;2024-03-08T11:09:40;9.90;99.90
40828;DHT22;26549;50.918;5.338;2024-03-08T11:14:52;9.90;99.90
40828;DHT22;26549;50.918;5.338;2024-03-08T11:17:40;10.10;99.90
40828;DHT22;26549;50.918;5.338;2024-03-08T11:20:12;10.00;99.90
40828;DHT22;26549;50.918;5.338;2024-03-08T11:22:48;10.00;99.90
40828;DHT22;26549;50.918;5.338;2024-03-08T11:25:38;9.90;99.90
40828;DHT22;26549;50.918;5.338;2024-03-08T11:33:29;10.20;99.90
40828;DHT22;26549;50.918;5.338;2024-03-08T11:36:09;10.30;99.90
40828;DHT22;26549;50.918;5.338;2024-03-08T11:38:46;10.30;99.90
40828;DHT22;26549;50.918;5.338;2024-03-08T11:41:22;10.50;99.90
40828;DHT22;26549;50.918;5.338;2024-03-08T11:43:49;10.60;99.90
40828;DHT22;26549;50.918;5.338;2024-03-08T11:46:17;10.70;99.90
40828;DHT22;26549;50.918;5.338;2024-03-08T11:48:46;10.90;99.90
40828;DHT22;26549;50.918;5.338;2024-03-08T11:51:15;10.90;99.90
40828;DHT22;26549;50.918;5.338;2024-03-08T11:53:41;10.90;99.90
40828;DHT22;26549;50.918;5.338;2024-03-08T11:56:08;10.80;99.90
40828;DHT22;26549;50.918;5.338;2024-03-08T11:58:35;10.90;99.90
40828;DHT22;26549;50.918;5.338;2024-03-08T12:01:04;10.90;99.90
40828;DHT22;26549;50.918;5.338;2024-03-08T12:03:31;11.00;99.90
40828;DHT22;26549;50.918;5.338;2024-03-08T12:06:02;11.00;99.90
40828;DHT22;26549;50.918;5.338;2024-03-08T12:08:30;11.00;99.90
40828;DHT22;26549;50.918;5.338;2024-03-08T12:10:57;11.10;99.90
40828;DHT22;26549;50.918;5.338;2024-03-08T12:13:27;11.20;99.90
40828;DHT22;26549;50.918;5.338;2024-03-08T12:16:03;11.30;99.90
40828;DHT22;26549;50.918;5.338;2024-03-08T12:18:38;11.40;99.90
40828;DHT22;26549;50.918;5.338;2024-03-08T12:21:13;11.50;99.90
40828;DHT22;26549;50.918;5.338;2024-03-08T12:23:44;11.70;99.90
40828;DHT22;26549;50.918;5.338;2024-03-08T12:26:26;11.80;99.90
40828;DHT22;26549;50.918;5.338;2024-03-08T12:28:52;11.80;99.90
40828;DHT22;26549;50.918;5.338;2024-03-08T12:31:20;11.80;99.90
40828;DHT22;26549;50.918;5.338;2024-03-08T12:33:50;11.90;99.70
40828;DHT22;26549;50.918;5.338;2024-03-08T12:36:18;11.90;99.80
40828;DHT22;26549;50.918;5.338;2024-03-08T12:38:47;11.90;99.90
40828;DHT22;26549;50.918;5.338;2024-03-08T12:41:19;12.10;99.50
40828;DHT22;26549;50.918;5.338;2024-03-08T12:43:46;12.20;99.90
40828;DHT22;26549;50.918;5.338;2024-03-08T12:46:16;12.10;99.00
40828;DHT22;26549;50.918;5.338;2024-03-08T12:48:43;12.10;99.00
40828;DHT22;26549;50.918;5.338;2024-03-08T12:51:16;12.10;99.90
40828;DHT22;26549;50.918;5.338;2024-03-08T12:53:44;12.30;99.40
40828;DHT22;26549;50.918;5.338;2024-03-08T12:56:14;12.30;99.10
40828;DHT22;26549;50.918;5.338;2024-03-08T12:58:43;12.30;99.60
40828;DHT22;26549;50.918;5.338;2024-03-08T13:01:11;12.30;98.90
40828;DHT22;26549;50.918;5.338;2024-03-08T13:03:39;12.40;98.70
40828;DHT22;26549;50.918;5.338;2024-03-08T13:06:05;12.30;98.90
40828;DHT22;26549;50.918;5.338;2024-03-08T13:08:38;12.40;98.70
40828;DHT22;26549;50.918;5.338;2024-03-08T13:11:07;12.40;99.50
40828;DHT22;26549;50.918;5.338;2024-03-08T13:13:34;12.50;99.20
40828;DHT22;26549;50.918;5.338;2024-03-08T13:16:06;12.60;98.90
40828;DHT22;26549;50.918;5.338;2024-03-08T13:18:35;12.70;98.60
40828;DHT22;26549;50.918;5.338;2024-03-08T13:21:01;12.70;98.20
40828;DHT22;26549;50.918;5.338;2024-03-08T13:23:37;12.70;98.40
40828;DHT22;26549;50.918;5.338;2024-03-08T13:26:07;12.70;98.70
40828;DHT22;26549;50.918;5.338;2024-03-08T13:28:33;12.70;98.40
40828;DHT22;26549;50.918;5.338;2024-03-08T13:31:04;12.70;98.70
40828;DHT22;26549;50.918;5.338;2024-03-08T13:33:33;12.70;98.20
40828;DHT22;26549;50.918;5.338;2024-03-08T13:36:02;12.70;99.30
40828;DHT22;26549;50.918;5.338;2024-03-08T13:38:32;12.90;97.90
40828;DHT22;26549;50.918;5.338;2024-03-08T13:40:59;12.70;97.60
40828;DHT22;26549;50.918;5.338;2024-03-08T13:43:26;12.70;97.60
40828;DHT22;26549;50.918;5.338;2024-03-08T13:45:55;12.60;98.30
40828;DHT22;26549;50.918;5.338;2024-03-08T13:48:21;12.70;98.80
40828;DHT22;26549;50.918;5.338;2024-03-08T13:50:48;12.70;98.00
40828;DHT22;26549;50.918;5.338;2024-03-08T13:53:15;12.60;98.60
40828;DHT22;26549;50.918;5.338;2024-03-08T13:55:43;12.80;98.50
40828;DHT22;26549;50.918;5.338;2024-03-08T13:58:10;12.80;98.10
40828;DHT22;26549;50.918;5.338;2024-03-08T14:00:42;12.80;97.90
40828;DHT22;26549;50.918;5.338;2024-03-08T14:03:10;12.80;97.50
40828;DHT22;26549;50.918;5.338;2024-03-08T14:05:41;12.80;98.00
40828;DHT22;26549;50.918;5.338;2024-03-08T14:08:09;12.80;97.80
40828;DHT22;26549;50.918;5.338;2024-03-08T14:10:37;12.80;98.00
40828;DHT22;26549;50.918;5.338;2024-03-08T14:13:04;12.90;97.40
40828;DHT22;26549;50.918;5.338;2024-03-08T14:15:34;13.00;98.00
40828;DHT22;26549;50.918;5.338;2024-03-08T14:18:01;12.90;98.40
40828;DHT22;26549;50.918;5.338;2024-03-08T14:20:27;13.00;98.10
40828;DHT22;26549;50.918;5.338;2024-03-08T14:22:54;13.10;97.20
40828;DHT22;26549;50.918;5.338;2024-03-08T14:25:20;13.00;96.70
40828;DHT22;26549;50.918;5.338;2024-03-08T14:27:50;12.90;96.90
40828;DHT22;26549;50.918;5.338;2024-03-08T14:30:19;12.90;97.10
40828;DHT22;26549;50.918;5.338;2024-03-08T14:33:04;13.00;97.80
40828;DHT22;26549;50.918;5.338;2024-03-08T14:35:31;13.10;98.00
40828;DHT22;26549;50.918;5.338;2024-03-08T14:37:57;13.10;97.20
40828;DHT22;26549;50.918;5.338;2024-03-08T14:40:24;13.10;97.60
40828;DHT22;26549;50.918;5.338;2024-03-08T14:42:51;13.10;97.50
40828;DHT22;26549;50.918;5.338;2024-03-08T14:45:19;13.00;96.40
40828;DHT22;26549;50.918;5.338;2024-03-08T14:47:47;13.00;97.30
40828;DHT22;26549;50.918;5.338;2024-03-08T14:50:22;12.90;97.00
40828;DHT22;26549;50.918;5.338;2024-03-08T14:52:49;12.80;97.40
40828;DHT22;26549;50.918;5.338;2024-03-08T14:55:18;12.80;97.00
40828;DHT22;26549;50.918;5.338;2024-03-08T14:57:50;12.80;97.10
40828;DHT22;26549;50.918;5.338;2024-03-08T15:00:18;12.80;97.00
40828;DHT22;26549;50.918;5.338;2024-03-08T15:02:55;12.90;97.50
40828;DHT22;26549;50.918;5.338;2024-03-08T15:05:22;12.90;96.70
40828;DHT22;26549;50.918;5.338;2024-03-08T15:07:52;12.90;97.10
40828;DHT22;26549;50.918;5.338;2024-03-08T15:10:20;12.80;96.50
40828;DHT22;26549;50.918;5.338;2024-03-08T15:12:48;12.90;96.60
40828;DHT22;26549;50.918;5.338;2024-03-08T15:15:15;12.80;96.70
40828;DHT22;26549;50.918;5.338;2024-03-08T15:17:44;12.80;96.70
40828;DHT22;26549;50.918;5.338;2024-03-08T15:20:14;12.80;96.90
40828;DHT22;26549;50.918;5.338;2024-03-08T15:22:42;12.80;96.70
40828;DHT22;26549;50.918;5.338;2024-03-08T15:25:09;12.70;96.40
40828;DHT22;26549;50.918;5.338;2024-03-08T15:27:38;12.80;96.40
40828;DHT22;26549;50.918;5.338;2024-03-08T15:30:07;12.70;96.50
40828;DHT22;26549;50.918;5.338;2024-03-08T15:32:44;12.70;96.90
40828;DHT22;26549;50.918;5.338;2024-03-08T15:35:10;12.70;96.40
40828;DHT22;26549;50.918;5.338;2024-03-08T15:37:40;12.70;96.70
40828;DHT22;26549;50.918;5.338;2024-03-08T15:40:09;12.70;96.40
40828;DHT22;26549;50.918;5.338;2024-03-08T15:42:42;12.70;96.60
40828;DHT22;26549;50.918;5.338;2024-03-08T15:45:08;12.70;96.30
40828;DHT22;26549;50.918;5.338;2024-03-08T15:47:34;12.70;96.60
40828;DHT22;26549;50.918;5.338;2024-03-08T15:50:01;12.70;96.40
40828;DHT22;26549;50.918;5.338;2024-03-08T15:52:29;12.50;96.60
40828;DHT22;26549;50.918;5.338;2024-03-08T15:54:55;12.50;96.70
40828;DHT22;26549;50.918;5.338;2024-03-08T15:57:21;12.50;96.40
40828;DHT22;26549;50.918;5.338;2024-03-08T15:59:47;12.50;96.50